sensor_id;sensor_type;location;lat;lon;timestamp;P1;durP1;ratioP1;P2;durP2;ratioP2
22531;SDS011;11432;46.924;7.114;2022-09-24T00:00:52;3.42;;;2.03;;
22531;SDS011;11432;46.924;7.114;2022-09-24T00:03:18;4.93;;;2.17;;
22531;SDS011;11432;46.924;7.114;2022-09-24T00:05:44;5.45;;;2.10;;
22531;SDS011;11432;46.924;7.114;2022-09-24T00:08:10;4.70;;;2.40;;
22531;SDS011;11432;46.924;7.114;2022-09-24T00:10:37;3.80;;;2.20;;
22531;SDS011;11432;46.924;7.114;2022-09-24T00:13:05;4.70;;;2.72;;
22531;SDS011;11432;46.924;7.114;2022-09-24T00:15:36;5.40;;;2.72;;
22531;SDS011;11432;46.924;7.114;2022-09-24T00:18:03;5.20;;;2.65;;
22531;SDS011;11432;46.924;7.114;2022-09-24T00:20:31;4.28;;;2.63;;
22531;SDS011;11432;46.924;7.114;2022-09-24T00:22:58;3.03;;;2.47;;
22531;SDS011;11432;46.924;7.114;2022-09-24T00:25:24;5.60;;;2.75;;
22531;SDS011;11432;46.924;7.114;2022-09-24T00:28:08;4.63;;;2.53;;
22531;SDS011;11432;46.924;7.114;2022-09-24T00:30:36;3.92;;;2.38;;
22531;SDS011;11432;46.924;7.114;2022-09-24T00:33:03;7.55;;;2.83;;
22531;SDS011;11432;46.924;7.114;2022-09-24T00:35:32;7.00;;;3.08;;
22531;SDS011;11432;46.924;7.114;2022-09-24T00:37:58;6.15;;;2.92;;
22531;SDS011;11432;46.924;7.114;2022-09-24T00:40:31;12.52;;;3.05;;
22531;SDS011;11432;46.924;7.114;2022-09-24T00:42:58;5.60;;;2.80;;
22531;SDS011;11432;46.924;7.114;2022-09-24T00:45:24;8.05;;;3.30;;
22531;SDS011;11432;46.924;7.114;2022-09-24T00:47:52;7.82;;;3.13;;
22531;SDS011;11432;46.924;7.114;2022-09-24T00:50:23;3.33;;;2.60;;
22531;SDS011;11432;46.924;7.114;2022-09-24T00:52:50;4.95;;;3.08;;
22531;SDS011;11432;46.924;7.114;2022-09-24T00:55:19;7.95;;;2.80;;
22531;SDS011;11432;46.924;7.114;2022-09-24T00:57:47;6.80;;;2.83;;
22531;SDS011;11432;46.924;7.114;2022-09-24T01:00:20;4.00;;;2.63;;
22531;SDS011;11432;46.924;7.114;2022-09-24T01:02:46;4.72;;;2.50;;
22531;SDS011;11432;46.924;7.114;2022-09-24T01:05:14;5.82;;;2.70;;
22531;SDS011;11432;46.924;7.114;2022-09-24T01:07:39;4.88;;;2.80;;
22531;SDS011;11432;46.924;7.114;2022-09-24T01:10:05;6.53;;;2.60;;
22531;SDS011;11432;46.924;7.114;2022-09-24T01:12:34;9.48;;;3.13;;
22531;SDS011;11432;46.924;7.114;2022-09-24T01:17:47;7.95;;;3.15;;
22531;SDS011;11432;46.924;7.114;2022-09-24T01:23:29;7.47;;;2.88;;
22531;SDS011;11432;46.924;7.114;2022-09-24T01:26:55;3.55;;;2.60;;
22531;SDS011;11432;46.924;7.114;2022-09-24T01:29:36;3.60;;;2.83;;
22531;SDS011;11432;46.924;7.114;2022-09-24T01:32:27;3.42;;;2.53;;
22531;SDS011;11432;46.924;7.114;2022-09-24T01:35:18;6.22;;;2.58;;
22531;SDS011;11432;46.924;7.114;2022-09-24T01:38:03;4.30;;;2.38;;
22531;SDS011;11432;46.924;7.114;2022-09-24T01:40:33;3.90;;;2.35;;
22531;SDS011;11432;46.924;7.114;2022-09-24T01:43:01;6.50;;;2.25;;
22531;SDS011;11432;46.924;7.114;2022-09-24T01:45:29;5.25;;;2.35;;
22531;SDS011;11432;46.924;7.114;2022-09-24T01:48:00;3.22;;;2.17;;
22531;SDS011;11432;46.924;7.114;2022-09-24T01:50:28;4.88;;;2.60;;
22531;SDS011;11432;46.924;7.114;2022-09-24T01:53:05;3.05;;;1.95;;
22531;SDS011;11432;46.924;7.114;2022-09-24T01:55:45;4.25;;;2.15;;
22531;SDS011;11432;46.924;7.114;2022-09-24T01:58:15;4.28;;;2.45;;
22531;SDS011;11432;46.924;7.114;2022-09-24T02:00:47;3.92;;;2.22;;
22531;SDS011;11432;46.924;7.114;2022-09-24T02:03:24;3.20;;;1.90;;
22531;SDS011;11432;46.924;7.114;2022-09-24T02:05:55;3.38;;;1.92;;
22531;SDS011;11432;46.924;7.114;2022-09-24T02:08:38;2.30;;;1.85;;
22531;SDS011;11432;46.924;7.114;2022-09-24T02:11:07;2.60;;;2.03;;
22531;SDS011;11432;46.924;7.114;2022-09-24T02:14:00;3.78;;;1.80;;
22531;SDS011;11432;46.924;7.114;2022-09-24T02:16:32;3.80;;;2.00;;
22531;SDS011;11432;46.924;7.114;2022-09-24T02:19:03;4.32;;;2.35;;
22531;SDS011;11432;46.924;7.114;2022-09-24T02:21:31;3.95;;;2.20;;
22531;SDS011;11432;46.924;7.114;2022-09-24T02:24:07;4.60;;;2.33;;
22531;SDS011;11432;46.924;7.114;2022-09-24T02:26:38;3.63;;;2.10;;
22531;SDS011;11432;46.924;7.114;2022-09-24T02:29:03;3.28;;;2.10;;
22531;SDS011;11432;46.924;7.114;2022-09-24T02:31:33;4.82;;;2.30;;
22531;SDS011;11432;46.924;7.114;2022-09-24T02:34:10;3.25;;;2.08;;
22531;SDS011;11432;46.924;7.114;2022-09-24T02:36:45;4.75;;;2.10;;
22531;SDS011;11432;46.924;7.114;2022-09-24T02:39:12;6.53;;;3.00;;
22531;SDS011;11432;46.924;7.114;2022-09-24T02:41:37;4.55;;;1.98;;
22531;SDS011;11432;46.924;7.114;2022-09-24T02:44:06;3.70;;;2.77;;
22531;SDS011;11432;46.924;7.114;2022-09-24T02:46:31;4.60;;;2.50;;
22531;SDS011;11432;46.924;7.114;2022-09-24T02:48:57;4.78;;;2.67;;
22531;SDS011;11432;46.924;7.114;2022-09-24T02:51:23;3.90;;;2.55;;
22531;SDS011;11432;46.924;7.114;2022-09-24T02:53:48;3.45;;;2.38;;
22531;SDS011;11432;46.924;7.114;2022-09-24T02:56:14;3.28;;;2.10;;
22531;SDS011;11432;46.924;7.114;2022-09-24T02:58:40;3.63;;;2.60;;
22531;SDS011;11432;46.924;7.114;2022-09-24T03:01:06;3.13;;;2.42;;
22531;SDS011;11432;46.924;7.114;2022-09-24T03:03:32;4.82;;;2.88;;
22531;SDS011;11432;46.924;7.114;2022-09-24T03:05:57;3.97;;;2.60;;
22531;SDS011;11432;46.924;7.114;2022-09-24T03:08:23;4.78;;;2.72;;
22531;SDS011;11432;46.924;7.114;2022-09-24T03:10:49;6.47;;;2.60;;
22531;SDS011;11432;46.924;7.114;2022-09-24T03:13:16;3.85;;;2.40;;
22531;SDS011;11432;46.924;7.114;2022-09-24T03:15:43;4.53;;;2.60;;
22531;SDS011;11432;46.924;7.114;2022-09-24T03:18:09;5.50;;;2.70;;
22531;SDS011;11432;46.924;7.114;2022-09-24T03:20:35;5.07;;;2.80;;
22531;SDS011;11432;46.924;7.114;2022-09-24T03:23:00;5.57;;;2.72;;
22531;SDS011;11432;46.924;7.114;2022-09-24T03:25:26;4.85;;;2.80;;
22531;SDS011;11432;46.924;7.114;2022-09-24T03:27:51;4.78;;;2.70;;
22531;SDS011;11432;46.924;7.114;2022-09-24T03:30:17;9.43;;;3.28;;
22531;SDS011;11432;46.924;7.114;2022-09-24T03:33:02;4.55;;;2.88;;
22531;SDS011;11432;46.924;7.114;2022-09-24T03:35:27;4.60;;;3.05;;
22531;SDS011;11432;46.924;7.114;2022-09-24T03:37:53;7.32;;;3.65;;
22531;SDS011;11432;46.924;7.114;2022-09-24T03:40:18;4.07;;;2.83;;
22531;SDS011;11432;46.924;7.114;2022-09-24T03:42:44;4.43;;;2.80;;
22531;SDS011;11432;46.924;7.114;2022-09-24T03:45:10;7.53;;;2.63;;
22531;SDS011;11432;46.924;7.114;2022-09-24T03:47:35;4.93;;;2.90;;
22531;SDS011;11432;46.924;7.114;2022-09-24T03:50:01;5.38;;;3.28;;
22531;SDS011;11432;46.924;7.114;2022-09-24T03:52:27;6.20;;;3.10;;
22531;SDS011;11432;46.924;7.114;2022-09-24T03:54:53;3.65;;;2.90;;
22531;SDS011;11432;46.924;7.114;2022-09-24T03:57:19;5.00;;;2.88;;
22531;SDS011;11432;46.924;7.114;2022-09-24T03:59:45;5.05;;;3.08;;
22531;SDS011;11432;46.924;7.114;2022-09-24T04:02:11;5.00;;;2.80;;
22531;SDS011;11432;46.924;7.114;2022-09-24T04:04:36;5.05;;;2.80;;
22531;SDS011;11432;46.924;7.114;2022-09-24T04:07:02;4.43;;;2.92;;
22531;SDS011;11432;46.924;7.114;2022-09-24T04:09:28;7.25;;;3.35;;
22531;SDS011;11432;46.924;7.114;2022-09-24T04:11:54;7.30;;;2.90;;
22531;SDS011;11432;46.924;7.114;2022-09-24T04:14:20;5.70;;;3.00;;
22531;SDS011;11432;46.924;7.114;2022-09-24T04:16:45;6.22;;;3.47;;
22531;SDS011;11432;46.924;7.114;2022-09-24T04:19:12;4.32;;;2.90;;
22531;SDS011;11432;46.924;7.114;2022-09-24T04:21:39;5.78;;;2.83;;
22531;SDS011;11432;46.924;7.114;2022-09-24T04:24:06;5.75;;;3.00;;
22531;SDS011;11432;46.924;7.114;2022-09-24T04:26:31;5.82;;;3.22;;
22531;SDS011;11432;46.924;7.114;2022-09-24T04:28:57;3.90;;;3.08;;
22531;SDS011;11432;46.924;7.114;2022-09-24T04:31:23;4.97;;;2.78;;
22531;SDS011;11432;46.924;7.114;2022-09-24T04:33:51;4.45;;;3.45;;
22531;SDS011;11432;46.924;7.114;2022-09-24T04:36:17;4.32;;;3.08;;
22531;SDS011;11432;46.924;7.114;2022-09-24T04:38:44;4.25;;;2.95;;
22531;SDS011;11432;46.924;7.114;2022-09-24T04:41:10;6.00;;;3.13;;
22531;SDS011;11432;46.924;7.114;2022-09-24T04:43:36;5.85;;;3.28;;
22531;SDS011;11432;46.924;7.114;2022-09-24T04:46:03;6.07;;;2.83;;
22531;SDS011;11432;46.924;7.114;2022-09-24T04:48:29;4.75;;;2.80;;
22531;SDS011;11432;46.924;7.114;2022-09-24T04:50:55;4.93;;;3.22;;
22531;SDS011;11432;46.924;7.114;2022-09-24T04:53:21;6.18;;;3.30;;
22531;SDS011;11432;46.924;7.114;2022-09-24T04:55:48;4.57;;;2.97;;
22531;SDS011;11432;46.924;7.114;2022-09-24T04:58:13;4.05;;;2.92;;
22531;SDS011;11432;46.924;7.114;2022-09-24T05:00:39;5.30;;;3.30;;
22531;SDS011;11432;46.924;7.114;2022-09-24T05:03:07;5.50;;;3.00;;
22531;SDS011;11432;46.924;7.114;2022-09-24T05:05:33;7.45;;;3.25;;
22531;SDS011;11432;46.924;7.114;2022-09-24T05:08:00;7.82;;;2.83;;
22531;SDS011;11432;46.924;7.114;2022-09-24T05:10:27;5.13;;;3.05;;
22531;SDS011;11432;46.924;7.114;2022-09-24T05:12:54;3.42;;;2.90;;
22531;SDS011;11432;46.924;7.114;2022-09-24T05:15:19;5.22;;;2.90;;
22531;SDS011;11432;46.924;7.114;2022-09-24T05:17:45;3.30;;;3.00;;
22531;SDS011;11432;46.924;7.114;2022-09-24T05:20:11;3.88;;;2.70;;
22531;SDS011;11432;46.924;7.114;2022-09-24T05:22:39;4.72;;;2.70;;
22531;SDS011;11432;46.924;7.114;2022-09-24T05:25:06;3.35;;;2.75;;
22531;SDS011;11432;46.924;7.114;2022-09-24T05:27:31;3.63;;;2.90;;
22531;SDS011;11432;46.924;7.114;2022-09-24T05:29:57;5.68;;;2.90;;
22531;SDS011;11432;46.924;7.114;2022-09-24T05:32:24;3.80;;;2.63;;
22531;SDS011;11432;46.924;7.114;2022-09-24T05:34:51;5.10;;;3.08;;
22531;SDS011;11432;46.924;7.114;2022-09-24T05:37:17;4.15;;;2.90;;
22531;SDS011;11432;46.924;7.114;2022-09-24T05:39:43;3.78;;;2.90;;
22531;SDS011;11432;46.924;7.114;2022-09-24T05:42:09;4.80;;;2.88;;
22531;SDS011;11432;46.924;7.114;2022-09-24T05:44:37;6.97;;;2.97;;
22531;SDS011;11432;46.924;7.114;2022-09-24T05:47:04;5.32;;;2.70;;
22531;SDS011;11432;46.924;7.114;2022-09-24T05:49:29;3.72;;;2.67;;
22531;SDS011;11432;46.924;7.114;2022-09-24T05:51:56;3.67;;;2.70;;
22531;SDS011;11432;46.924;7.114;2022-09-24T05:54:21;4.43;;;2.55;;
22531;SDS011;11432;46.924;7.114;2022-09-24T05:56:47;5.70;;;2.75;;
22531;SDS011;11432;46.924;7.114;2022-09-24T05:59:13;3.53;;;2.53;;
22531;SDS011;11432;46.924;7.114;2022-09-24T06:01:39;4.50;;;2.50;;
22531;SDS011;11432;46.924;7.114;2022-09-24T06:04:06;3.75;;;2.70;;
22531;SDS011;11432;46.924;7.114;2022-09-24T06:06:31;4.07;;;2.67;;
22531;SDS011;11432;46.924;7.114;2022-09-24T06:08:58;3.72;;;2.47;;
22531;SDS011;11432;46.924;7.114;2022-09-24T06:11:23;3.22;;;2.55;;
22531;SDS011;11432;46.924;7.114;2022-09-24T06:13:49;6.05;;;3.72;;
22531;SDS011;11432;46.924;7.114;2022-09-24T06:16:16;5.35;;;3.88;;
22531;SDS011;11432;46.924;7.114;2022-09-24T06:18:42;6.65;;;4.72;;
22531;SDS011;11432;46.924;7.114;2022-09-24T06:21:12;5.63;;;4.40;;
22531;SDS011;11432;46.924;7.114;2022-09-24T06:23:41;4.63;;;3.47;;
22531;SDS011;11432;46.924;7.114;2022-09-24T06:26:09;4.20;;;2.33;;
22531;SDS011;11432;46.924;7.114;2022-09-24T06:28:36;3.80;;;2.72;;
22531;SDS011;11432;46.924;7.114;2022-09-24T06:31:03;5.10;;;3.00;;
22531;SDS011;11432;46.924;7.114;2022-09-24T06:33:29;3.30;;;2.20;;
22531;SDS011;11432;46.924;7.114;2022-09-24T06:35:57;2.75;;;2.17;;
22531;SDS011;11432;46.924;7.114;2022-09-24T06:38:24;3.85;;;2.60;;
22531;SDS011;11432;46.924;7.114;2022-09-24T06:40:50;4.60;;;2.65;;
22531;SDS011;11432;46.924;7.114;2022-09-24T06:43:16;3.15;;;2.20;;
22531;SDS011;11432;46.924;7.114;2022-09-24T06:45:42;2.88;;;1.70;;
22531;SDS011;11432;46.924;7.114;2022-09-24T06:48:09;2.00;;;1.10;;
22531;SDS011;11432;46.924;7.114;2022-09-24T06:50:38;2.92;;;1.38;;
22531;SDS011;11432;46.924;7.114;2022-09-24T06:53:05;3.38;;;1.40;;
22531;SDS011;11432;46.924;7.114;2022-09-24T06:55:33;2.10;;;1.15;;
22531;SDS011;11432;46.924;7.114;2022-09-24T06:58:06;2.03;;;1.23;;
22531;SDS011;11432;46.924;7.114;2022-09-24T07:00:33;2.13;;;1.40;;
22531;SDS011;11432;46.924;7.114;2022-09-24T07:03:00;2.53;;;1.48;;
22531;SDS011;11432;46.924;7.114;2022-09-24T07:05:25;2.63;;;1.25;;
22531;SDS011;11432;46.924;7.114;2022-09-24T07:07:51;1.85;;;1.30;;
22531;SDS011;11432;46.924;7.114;2022-09-24T07:10:17;2.65;;;1.60;;
22531;SDS011;11432;46.924;7.114;2022-09-24T07:12:42;1.77;;;1.40;;
22531;SDS011;11432;46.924;7.114;2022-09-24T07:15:08;3.10;;;1.40;;
22531;SDS011;11432;46.924;7.114;2022-09-24T07:17:34;2.15;;;1.33;;
22531;SDS011;11432;46.924;7.114;2022-09-24T07:20:00;3.70;;;1.60;;
22531;SDS011;11432;46.924;7.114;2022-09-24T07:22:27;1.52;;;1.25;;
22531;SDS011;11432;46.924;7.114;2022-09-24T07:24:53;2.15;;;1.25;;
22531;SDS011;11432;46.924;7.114;2022-09-24T07:27:19;2.42;;;1.52;;
22531;SDS011;11432;46.924;7.114;2022-09-24T07:29:47;3.07;;;1.57;;
22531;SDS011;11432;46.924;7.114;2022-09-24T07:32:16;5.57;;;1.75;;
22531;SDS011;11432;46.924;7.114;2022-09-24T07:34:42;2.03;;;1.27;;
22531;SDS011;11432;46.924;7.114;2022-09-24T07:37:07;3.78;;;1.50;;
22531;SDS011;11432;46.924;7.114;2022-09-24T07:39:33;3.03;;;1.60;;
22531;SDS011;11432;46.924;7.114;2022-09-24T07:41:59;2.42;;;1.42;;
22531;SDS011;11432;46.924;7.114;2022-09-24T07:44:25;2.88;;;1.63;;
22531;SDS011;11432;46.924;7.114;2022-09-24T07:46:51;2.03;;;1.40;;
22531;SDS011;11432;46.924;7.114;2022-09-24T07:49:17;2.17;;;1.52;;
22531;SDS011;11432;46.924;7.114;2022-09-24T07:51:42;2.72;;;1.48;;
22531;SDS011;11432;46.924;7.114;2022-09-24T07:54:09;2.22;;;1.33;;
22531;SDS011;11432;46.924;7.114;2022-09-24T07:56:35;2.22;;;1.20;;
22531;SDS011;11432;46.924;7.114;2022-09-24T07:59:01;3.40;;;1.45;;
22531;SDS011;11432;46.924;7.114;2022-09-24T08:01:27;2.28;;;1.55;;
22531;SDS011;11432;46.924;7.114;2022-09-24T08:03:52;2.42;;;1.60;;
22531;SDS011;11432;46.924;7.114;2022-09-24T08:06:18;2.33;;;1.40;;
22531;SDS011;11432;46.924;7.114;2022-09-24T08:08:49;2.10;;;1.42;;
22531;SDS011;11432;46.924;7.114;2022-09-24T08:11:17;1.88;;;1.20;;
22531;SDS011;11432;46.924;7.114;2022-09-24T08:13:43;2.25;;;1.30;;
22531;SDS011;11432;46.924;7.114;2022-09-24T08:16:10;2.67;;;1.15;;
22531;SDS011;11432;46.924;7.114;2022-09-24T08:18:36;4.80;;;2.08;;
22531;SDS011;11432;46.924;7.114;2022-09-24T08:21:07;2.08;;;1.20;;
22531;SDS011;11432;46.924;7.114;2022-09-24T08:23:35;3.75;;;1.35;;
22531;SDS011;11432;46.924;7.114;2022-09-24T08:26:02;3.28;;;1.45;;
22531;SDS011;11432;46.924;7.114;2022-09-24T08:28:29;4.93;;;2.08;;
22531;SDS011;11432;46.924;7.114;2022-09-24T08:30:58;1.40;;;1.00;;
22531;SDS011;11432;46.924;7.114;2022-09-24T08:33:29;2.95;;;1.10;;
22531;SDS011;11432;46.924;7.114;2022-09-24T08:35:59;3.60;;;1.23;;
22531;SDS011;11432;46.924;7.114;2022-09-24T08:38:29;2.88;;;1.27;;
22531;SDS011;11432;46.924;7.114;2022-09-24T08:43:50;1.70;;;1.00;;
22531;SDS011;11432;46.924;7.114;2022-09-24T08:46:37;2.85;;;1.08;;
22531;SDS011;11432;46.924;7.114;2022-09-24T08:49:31;3.30;;;0.93;;
22531;SDS011;11432;46.924;7.114;2022-09-24T08:55:07;1.67;;;0.93;;
22531;SDS011;11432;46.924;7.114;2022-09-24T09:00:42;1.48;;;0.90;;
22531;SDS011;11432;46.924;7.114;2022-09-24T09:11:51;2.40;;;1.00;;
22531;SDS011;11432;46.924;7.114;2022-09-24T09:14:51;1.40;;;0.90;;
22531;SDS011;11432;46.924;7.114;2022-09-24T09:19:57;1.08;;;0.82;;
22531;SDS011;11432;46.924;7.114;2022-09-24T09:22:27;1.10;;;0.70;;
22531;SDS011;11432;46.924;7.114;2022-09-24T09:24:58;1.23;;;0.80;;
22531;SDS011;11432;46.924;7.114;2022-09-24T09:27:28;1.75;;;0.93;;
22531;SDS011;11432;46.924;7.114;2022-09-24T09:29:55;1.83;;;1.05;;
22531;SDS011;11432;46.924;7.114;2022-09-24T09:42:37;1.70;;;1.00;;
22531;SDS011;11432;46.924;7.114;2022-09-24T09:47:56;0.85;;;0.68;;
22531;SDS011;11432;46.924;7.114;2022-09-24T09:52:54;1.90;;;0.98;;
22531;SDS011;11432;46.924;7.114;2022-09-24T09:55:27;2.25;;;0.98;;
22531;SDS011;11432;46.924;7.114;2022-09-24T10:01:10;1.98;;;1.23;;
22531;SDS011;11432;46.924;7.114;2022-09-24T10:06:32;1.57;;;1.00;;
22531;SDS011;11432;46.924;7.114;2022-09-24T10:09:05;3.20;;;0.90;;
22531;SDS011;11432;46.924;7.114;2022-09-24T10:11:35;1.73;;;0.88;;
22531;SDS011;11432;46.924;7.114;2022-09-24T10:14:02;1.17;;;0.80;;
22531;SDS011;11432;46.924;7.114;2022-09-24T10:16:28;1.15;;;1.00;;
22531;SDS011;11432;46.924;7.114;2022-09-24T10:18:54;2.50;;;1.00;;
22531;SDS011;11432;46.924;7.114;2022-09-24T10:24:00;3.20;;;0.90;;
22531;SDS011;11432;46.924;7.114;2022-09-24T10:26:35;1.65;;;1.10;;
22531;SDS011;11432;46.924;7.114;2022-09-24T10:29:03;2.30;;;1.10;;
22531;SDS011;11432;46.924;7.114;2022-09-24T10:31:48;1.08;;;0.70;;
22531;SDS011;11432;46.924;7.114;2022-09-24T10:34:32;1.88;;;1.10;;
22531;SDS011;11432;46.924;7.114;2022-09-24T10:39:25;1.35;;;0.70;;
22531;SDS011;11432;46.924;7.114;2022-09-24T10:41:52;1.23;;;0.80;;
22531;SDS011;11432;46.924;7.114;2022-09-24T10:52:38;1.25;;;0.82;;
22531;SDS011;11432;46.924;7.114;2022-09-24T10:55:20;1.23;;;0.90;;
22531;SDS011;11432;46.924;7.114;2022-09-24T10:58:25;2.03;;;1.00;;
22531;SDS011;11432;46.924;7.114;2022-09-24T11:23:04;0.60;;;0.50;;
22531;SDS011;11432;46.924;7.114;2022-09-24T11:33:33;1.00;;;0.55;;
22531;SDS011;11432;46.924;7.114;2022-09-24T11:42:08;1.77;;;0.60;;
22531;SDS011;11432;46.924;7.114;2022-09-24T11:52:49;1.30;;;0.88;;
22531;SDS011;11432;46.924;7.114;2022-09-24T11:55:21;1.27;;;0.60;;
22531;SDS011;11432;46.924;7.114;2022-09-24T11:58:13;1.20;;;0.70;;
22531;SDS011;11432;46.924;7.114;2022-09-24T12:04:02;1.00;;;0.60;;
22531;SDS011;11432;46.924;7.114;2022-09-24T12:07:04;3.03;;;0.68;;
22531;SDS011;11432;46.924;7.114;2022-09-24T12:09:40;1.08;;;0.77;;
22531;SDS011;11432;46.924;7.114;2022-09-24T12:12:13;0.80;;;0.50;;
22531;SDS011;11432;46.924;7.114;2022-09-24T12:17:58;1.13;;;0.63;;
22531;SDS011;11432;46.924;7.114;2022-09-24T12:20:30;1.60;;;0.70;;
22531;SDS011;11432;46.924;7.114;2022-09-24T12:23:08;1.00;;;0.75;;
22531;SDS011;11432;46.924;7.114;2022-09-24T12:25:39;1.60;;;0.90;;
22531;SDS011;11432;46.924;7.114;2022-09-24T12:28:10;1.55;;;0.70;;
22531;SDS011;11432;46.924;7.114;2022-09-24T12:30:46;0.65;;;0.65;;
22531;SDS011;11432;46.924;7.114;2022-09-24T12:33:42;1.27;;;0.75;;
22531;SDS011;11432;46.924;7.114;2022-09-24T12:39:05;1.33;;;0.68;;
22531;SDS011;11432;46.924;7.114;2022-09-24T12:41:38;1.58;;;0.80;;
22531;SDS011;11432;46.924;7.114;2022-09-24T12:46:40;0.88;;;0.63;;
22531;SDS011;11432;46.924;7.114;2022-09-24T12:51:53;2.80;;;0.60;;
22531;SDS011;11432;46.924;7.114;2022-09-24T12:57:06;1.25;;;0.70;;
22531;SDS011;11432;46.924;7.114;2022-09-24T13:02:18;1.00;;;0.70;;
22531;SDS011;11432;46.924;7.114;2022-09-24T13:07:27;0.95;;;0.80;;
22531;SDS011;11432;46.924;7.114;2022-09-24T13:10:09;1.60;;;0.70;;
22531;SDS011;11432;46.924;7.114;2022-09-24T13:12:41;0.85;;;0.70;;
22531;SDS011;11432;46.924;7.114;2022-09-24T13:15:25;0.90;;;0.70;;
22531;SDS011;11432;46.924;7.114;2022-09-24T13:20:38;1.00;;;0.73;;
22531;SDS011;11432;46.924;7.114;2022-09-24T13:25:56;1.25;;;0.75;;
22531;SDS011;11432;46.924;7.114;2022-09-24T13:28:26;1.25;;;0.70;;
22531;SDS011;11432;46.924;7.114;2022-09-24T13:33:46;1.58;;;0.70;;
22531;SDS011;11432;46.924;7.114;2022-09-24T13:36:19;0.82;;;0.68;;
22531;SDS011;11432;46.924;7.114;2022-09-24T13:39:10;1.17;;;0.90;;
22531;SDS011;11432;46.924;7.114;2022-09-24T13:44:35;0.75;;;0.70;;
22531;SDS011;11432;46.924;7.114;2022-09-24T13:47:11;1.23;;;0.70;;
22531;SDS011;11432;46.924;7.114;2022-09-24T13:49:44;0.60;;;0.60;;
22531;SDS011;11432;46.924;7.114;2022-09-24T13:52:34;0.80;;;0.50;;
22531;SDS011;11432;46.924;7.114;2022-09-24T13:55:09;1.23;;;0.88;;
22531;SDS011;11432;46.924;7.114;2022-09-24T13:57:46;0.60;;;0.55;;
22531;SDS011;11432;46.924;7.114;2022-09-24T14:02:57;1.52;;;0.88;;
22531;SDS011;11432;46.924;7.114;2022-09-24T14:05:45;1.48;;;0.70;;
22531;SDS011;11432;46.924;7.114;2022-09-24T14:08:14;1.35;;;0.60;;
22531;SDS011;11432;46.924;7.114;2022-09-24T14:10:42;1.30;;;0.75;;
22531;SDS011;11432;46.924;7.114;2022-09-24T14:15:51;1.05;;;0.80;;
22531;SDS011;11432;46.924;7.114;2022-09-24T14:18:43;1.10;;;0.85;;
22531;SDS011;11432;46.924;7.114;2022-09-24T14:21:11;1.52;;;0.90;;
22531;SDS011;11432;46.924;7.114;2022-09-24T14:28:52;1.33;;;0.93;;
22531;SDS011;11432;46.924;7.114;2022-09-24T14:31:19;2.50;;;1.10;;
22531;SDS011;11432;46.924;7.114;2022-09-24T14:33:45;1.52;;;1.00;;
22531;SDS011;11432;46.924;7.114;2022-09-24T14:36:11;1.27;;;0.88;;
22531;SDS011;11432;46.924;7.114;2022-09-24T14:38:50;1.42;;;0.80;;
22531;SDS011;11432;46.924;7.114;2022-09-24T14:41:28;1.17;;;0.80;;
22531;SDS011;11432;46.924;7.114;2022-09-24T14:44:00;1.77;;;1.20;;
22531;SDS011;11432;46.924;7.114;2022-09-24T14:46:30;1.55;;;1.00;;
22531;SDS011;11432;46.924;7.114;2022-09-24T14:51:48;1.73;;;0.82;;
22531;SDS011;11432;46.924;7.114;2022-09-24T14:56:44;1.02;;;0.73;;
22531;SDS011;11432;46.924;7.114;2022-09-24T14:59:14;1.00;;;0.77;;
22531;SDS011;11432;46.924;7.114;2022-09-24T15:01:49;1.05;;;0.73;;
22531;SDS011;11432;46.924;7.114;2022-09-24T15:04:20;2.05;;;0.95;;
22531;SDS011;11432;46.924;7.114;2022-09-24T15:06:50;1.30;;;0.80;;
22531;SDS011;11432;46.924;7.114;2022-09-24T15:11:51;1.40;;;0.93;;
22531;SDS011;11432;46.924;7.114;2022-09-24T15:14:20;1.58;;;0.90;;
22531;SDS011;11432;46.924;7.114;2022-09-24T15:16:51;0.90;;;0.80;;
22531;SDS011;11432;46.924;7.114;2022-09-24T15:19:18;3.47;;;0.90;;
22531;SDS011;11432;46.924;7.114;2022-09-24T15:21:48;1.70;;;1.08;;
22531;SDS011;11432;46.924;7.114;2022-09-24T15:24:16;1.33;;;0.93;;
22531;SDS011;11432;46.924;7.114;2022-09-24T15:26:45;1.60;;;1.00;;
22531;SDS011;11432;46.924;7.114;2022-09-24T15:29:19;1.95;;;1.10;;
22531;SDS011;11432;46.924;7.114;2022-09-24T15:31:48;1.30;;;0.70;;
22531;SDS011;11432;46.924;7.114;2022-09-24T15:34:15;4.30;;;0.85;;
22531;SDS011;11432;46.924;7.114;2022-09-24T15:36:40;1.50;;;1.00;;
22531;SDS011;11432;46.924;7.114;2022-09-24T15:39:06;2.80;;;1.40;;
22531;SDS011;11432;46.924;7.114;2022-09-24T15:41:33;1.88;;;1.25;;
22531;SDS011;11432;46.924;7.114;2022-09-24T15:43:59;1.75;;;1.20;;
22531;SDS011;11432;46.924;7.114;2022-09-24T15:46:25;1.75;;;1.20;;
22531;SDS011;11432;46.924;7.114;2022-09-24T15:48:51;2.70;;;1.40;;
22531;SDS011;11432;46.924;7.114;2022-09-24T15:51:18;1.55;;;0.98;;
22531;SDS011;11432;46.924;7.114;2022-09-24T15:53:45;2.92;;;1.52;;
22531;SDS011;11432;46.924;7.114;2022-09-24T15:56:11;1.50;;;1.00;;
22531;SDS011;11432;46.924;7.114;2022-09-24T15:58:37;2.58;;;0.98;;
22531;SDS011;11432;46.924;7.114;2022-09-24T16:01:03;1.75;;;1.27;;
22531;SDS011;11432;46.924;7.114;2022-09-24T16:03:30;1.55;;;1.00;;
22531;SDS011;11432;46.924;7.114;2022-09-24T16:05:56;1.38;;;1.10;;
22531;SDS011;11432;46.924;7.114;2022-09-24T16:08:23;2.72;;;1.02;;
22531;SDS011;11432;46.924;7.114;2022-09-24T16:10:50;3.35;;;1.17;;
22531;SDS011;11432;46.924;7.114;2022-09-24T16:13:16;2.50;;;1.10;;
22531;SDS011;11432;46.924;7.114;2022-09-24T16:15:43;5.57;;;1.00;;
22531;SDS011;11432;46.924;7.114;2022-09-24T16:18:10;1.75;;;1.20;;
22531;SDS011;11432;46.924;7.114;2022-09-24T16:23:05;2.95;;;1.40;;
22531;SDS011;11432;46.924;7.114;2022-09-24T16:25:37;1.63;;;1.00;;
22531;SDS011;11432;46.924;7.114;2022-09-24T16:28:03;1.63;;;1.10;;
22531;SDS011;11432;46.924;7.114;2022-09-24T16:30:29;2.83;;;1.67;;
22531;SDS011;11432;46.924;7.114;2022-09-24T16:32:55;2.40;;;1.40;;
22531;SDS011;11432;46.924;7.114;2022-09-24T16:35:20;4.57;;;1.20;;
22531;SDS011;11432;46.924;7.114;2022-09-24T16:37:46;2.40;;;1.30;;
22531;SDS011;11432;46.924;7.114;2022-09-24T16:40:11;2.78;;;1.23;;
22531;SDS011;11432;46.924;7.114;2022-09-24T16:42:37;2.90;;;1.27;;
22531;SDS011;11432;46.924;7.114;2022-09-24T16:45:03;2.83;;;1.40;;
22531;SDS011;11432;46.924;7.114;2022-09-24T16:47:31;3.25;;;1.70;;
22531;SDS011;11432;46.924;7.114;2022-09-24T16:49:56;2.50;;;1.08;;
22531;SDS011;11432;46.924;7.114;2022-09-24T16:52:22;3.47;;;1.80;;
22531;SDS011;11432;46.924;7.114;2022-09-24T16:54:47;5.32;;;2.72;;
22531;SDS011;11432;46.924;7.114;2022-09-24T16:57:13;2.88;;;1.58;;
22531;SDS011;11432;46.924;7.114;2022-09-24T16:59:38;3.85;;;1.30;;
22531;SDS011;11432;46.924;7.114;2022-09-24T17:02:04;1.80;;;1.30;;
22531;SDS011;11432;46.924;7.114;2022-09-24T17:04:33;1.90;;;1.30;;
22531;SDS011;11432;46.924;7.114;2022-09-24T17:06:58;2.45;;;1.08;;
22531;SDS011;11432;46.924;7.114;2022-09-24T17:09:24;1.88;;;1.10;;
22531;SDS011;11432;46.924;7.114;2022-09-24T17:12:08;2.25;;;1.13;;
22531;SDS011;11432;46.924;7.114;2022-09-24T17:14:36;1.92;;;1.25;;
22531;SDS011;11432;46.924;7.114;2022-09-24T17:17:02;2.38;;;1.30;;
22531;SDS011;11432;46.924;7.114;2022-09-24T17:19:28;1.80;;;1.20;;
22531;SDS011;11432;46.924;7.114;2022-09-24T17:21:54;1.80;;;1.30;;
22531;SDS011;11432;46.924;7.114;2022-09-24T17:24:20;2.47;;;1.27;;
22531;SDS011;11432;46.924;7.114;2022-09-24T17:26:46;2.50;;;1.58;;
22531;SDS011;11432;46.924;7.114;2022-09-24T17:29:11;2.13;;;1.30;;
22531;SDS011;11432;46.924;7.114;2022-09-24T17:31:37;2.75;;;1.67;;
22531;SDS011;11432;46.924;7.114;2022-09-24T17:34:04;2.25;;;1.30;;
22531;SDS011;11432;46.924;7.114;2022-09-24T17:36:33;2.45;;;1.30;;
22531;SDS011;11432;46.924;7.114;2022-09-24T17:39:00;3.83;;;1.48;;
22531;SDS011;11432;46.924;7.114;2022-09-24T17:41:27;4.32;;;1.50;;